sensor_id;sensor_type;location;lat;lon;timestamp;temperature;humidity
29237;DHT22;16266;50.866;4.398;2022-12-18T00:01:32;-2.40;99.90
29237;DHT22;16266;50.866;4.398;2022-12-18T00:03:59;-2.40;99.90
29237;DHT22;16266;50.866;4.398;2022-12-18T00:06:27;-2.40;99.90
29237;DHT22;16266;50.866;4.398;2022-12-18T00:08:57;-2.40;99.90
29237;DHT22;16266;50.866;4.398;2022-12-18T00:11:25;-2.50;99.90
29237;DHT22;16266;50.866;4.398;2022-12-18T00:13:54;-2.40;99.90
29237;DHT22;16266;50.866;4.398;2022-12-18T00:16:21;-2.40;99.90
29237;DHT22;16266;50.866;4.398;2022-12-18T00:18:51;-2.40;99.90
29237;DHT22;16266;50.866;4.398;2022-12-18T00:21:17;-2.40;99.90
29237;DHT22;16266;50.866;4.398;2022-12-18T00:23:44;-2.40;99.90
29237;DHT22;16266;50.866;4.398;2022-12-18T00:26:24;-2.40;99.90
29237;DHT22;16266;50.866;4.398;2022-12-18T00:29:02;-2.50;99.90
29237;DHT22;16266;50.866;4.398;2022-12-18T00:31:29;-2.40;99.90
29237;DHT22;16266;50.866;4.398;2022-12-18T00:33:55;-2.30;99.90
29237;DHT22;16266;50.866;4.398;2022-12-18T00:36:23;-2.30;99.90
29237;DHT22;16266;50.866;4.398;2022-12-18T00:38:50;-2.40;99.90
29237;DHT22;16266;50.866;4.398;2022-12-18T00:41:16;-2.30;99.90
29237;DHT22;16266;50.866;4.398;2022-12-18T00:44:02;-2.50;99.90
29237;DHT22;16266;50.866;4.398;2022-12-18T00:46:27;-2.40;99.90
29237;DHT22;16266;50.866;4.398;2022-12-18T00:48:53;-2.40;99.90
29237;DHT22;16266;50.866;4.398;2022-12-18T00:51:19;-2.20;99.90
29237;DHT22;16266;50.866;4.398;2022-12-18T00:53:44;-2.30;99.90
29237;DHT22;16266;50.866;4.398;2022-12-18T00:56:10;-2.20;99.90
29237;DHT22;16266;50.866;4.398;2022-12-18T00:58:35;-2.10;99.90
29237;DHT22;16266;50.866;4.398;2022-12-18T01:01:03;-2.10;99.90
29237;DHT22;16266;50.866;4.398;2022-12-18T01:03:28;-2.10;99.90
29237;DHT22;16266;50.866;4.398;2022-12-18T01:05:55;-2.20;99.90
29237;DHT22;16266;50.866;4.398;2022-12-18T01:08:21;-2.00;99.90
29237;DHT22;16266;50.866;4.398;2022-12-18T01:10:46;-2.00;99.90
29237;DHT22;16266;50.866;4.398;2022-12-18T01:13:12;-2.00;99.90
29237;DHT22;16266;50.866;4.398;2022-12-18T01:15:38;-1.90;99.90
29237;DHT22;16266;50.866;4.398;2022-12-18T01:18:03;-2.00;99.90
29237;DHT22;16266;50.866;4.398;2022-12-18T01:20:29;-2.10;99.90
29237;DHT22;16266;50.866;4.398;2022-12-18T01:22:54;-2.20;99.90
29237;DHT22;16266;50.866;4.398;2022-12-18T01:25:20;-2.10;99.90
29237;DHT22;16266;50.866;4.398;2022-12-18T01:27:46;-2.10;99.90
29237;DHT22;16266;50.866;4.398;2022-12-18T01:30:12;-2.20;99.90
29237;DHT22;16266;50.866;4.398;2022-12-18T01:32:37;-2.10;99.90
29237;DHT22;16266;50.866;4.398;2022-12-18T01:35:03;-2.20;99.90
29237;DHT22;16266;50.866;4.398;2022-12-18T01:37:29;-2.30;99.90
29237;DHT22;16266;50.866;4.398;2022-12-18T01:39:54;-2.40;99.90
29237;DHT22;16266;50.866;4.398;2022-12-18T01:42:21;-2.50;99.90
29237;DHT22;16266;50.866;4.398;2022-12-18T01:48:18;-2.40;99.90
29237;DHT22;16266;50.866;4.398;2022-12-18T01:50:40;-2.50;99.90
29237;DHT22;16266;50.866;4.398;2022-12-18T01:53:11;-2.50;99.90
29237;DHT22;16266;50.866;4.398;2022-12-18T01:55:42;-2.50;99.90
29237;DHT22;16266;50.866;4.398;2022-12-18T01:58:08;-2.60;99.90
29237;DHT22;16266;50.866;4.398;2022-12-18T02:00:34;-2.60;99.90
29237;DHT22;16266;50.866;4.398;2022-12-18T02:03:00;-2.70;99.90
29237;DHT22;16266;50.866;4.398;2022-12-18T02:05:56;-2.60;99.90
29237;DHT22;16266;50.866;4.398;2022-12-18T02:14:29;-2.70;99.90
29237;DHT22;16266;50.866;4.398;2022-12-18T02:19:59;-2.60;99.90
29237;DHT22;16266;50.866;4.398;2022-12-18T02:25:35;-2.60;99.90
29237;DHT22;16266;50.866;4.398;2022-12-18T02:28:06;-2.70;99.90
29237;DHT22;16266;50.866;4.398;2022-12-18T02:30:35;-2.80;99.90
29237;DHT22;16266;50.866;4.398;2022-12-18T02:33:04;-2.80;99.90
29237;DHT22;16266;50.866;4.398;2022-12-18T02:35:33;-2.90;99.90
29237;DHT22;16266;50.866;4.398;2022-12-18T02:38:00;-3.10;99.90
29237;DHT22;16266;50.866;4.398;2022-12-18T02:40:27;-3.10;99.90
29237;DHT22;16266;50.866;4.398;2022-12-18T02:43:18;-3.10;99.90
29237;DHT22;16266;50.866;4.398;2022-12-18T02:45:57;-3.10;99.90
29237;DHT22;16266;50.866;4.398;2022-12-18T02:48:28;-3.00;99.90
29237;DHT22;16266;50.866;4.398;2022-12-18T02:51:08;-3.10;99.90
29237;DHT22;16266;50.866;4.398;2022-12-18T02:53:45;-3.10;99.90
29237;DHT22;16266;50.866;4.398;2022-12-18T02:56:20;-3.00;99.90
29237;DHT22;16266;50.866;4.398;2022-12-18T03:05:47;-3.00;99.90
29237;DHT22;16266;50.866;4.398;2022-12-18T03:08:29;-3.00;99.90
29237;DHT22;16266;50.866;4.398;2022-12-18T03:11:03;-3.00;99.90
29237;DHT22;16266;50.866;4.398;2022-12-18T03:13:52;-3.00;99.90
29237;DHT22;16266;50.866;4.398;2022-12-18T03:16:28;-3.10;99.90
29237;DHT22;16266;50.866;4.398;2022-12-18T03:19:03;-3.10;99.90
29237;DHT22;16266;50.866;4.398;2022-12-18T03:21:33;-3.20;99.90
29237;DHT22;16266;50.866;4.398;2022-12-18T03:24:05;-3.20;99.90
29237;DHT22;16266;50.866;4.398;2022-12-18T03:26:31;-3.10;99.90
29237;DHT22;16266;50.866;4.398;2022-12-18T03:29:04;-3.10;99.90
29237;DHT22;16266;50.866;4.398;2022-12-18T03:31:41;-3.10;99.90
29237;DHT22;16266;50.866;4.398;2022-12-18T03:34:17;-3.20;99.90
29237;DHT22;16266;50.866;4.398;2022-12-18T03:36:45;-3.20;99.90
29237;DHT22;16266;50.866;4.398;2022-12-18T03:39:10;-3.20;99.90
29237;DHT22;16266;50.866;4.398;2022-12-18T03:47:28;-3.10;99.90
29237;DHT22;16266;50.866;4.398;2022-12-18T03:50:08;-3.10;99.90
29237;DHT22;16266;50.866;4.398;2022-12-18T03:55:14;-3.20;99.90
29237;DHT22;16266;50.866;4.398;2022-12-18T03:57:41;-3.20;99.90
29237;DHT22;16266;50.866;4.398;2022-12-18T04:00:11;-3.30;99.90
29237;DHT22;16266;50.866;4.398;2022-12-18T04:02:41;-3.30;99.90
29237;DHT22;16266;50.866;4.398;2022-12-18T04:05:10;-3.30;99.90
29237;DHT22;16266;50.866;4.398;2022-12-18T04:07:36;-3.30;99.90
29237;DHT22;16266;50.866;4.398;2022-12-18T04:10:06;-3.20;99.90
29237;DHT22;16266;50.866;4.398;2022-12-18T04:12:32;-3.20;99.90
29237;DHT22;16266;50.866;4.398;2022-12-18T04:14:58;-3.20;99.90
29237;DHT22;16266;50.866;4.398;2022-12-18T04:17:23;-3.20;99.90
29237;DHT22;16266;50.866;4.398;2022-12-18T04:19:49;-3.20;99.90
29237;DHT22;16266;50.866;4.398;2022-12-18T04:22:15;-3.30;99.90
29237;DHT22;16266;50.866;4.398;2022-12-18T04:24:40;-3.30;99.90
29237;DHT22;16266;50.866;4.398;2022-12-18T04:27:07;-3.30;99.90
29237;DHT22;16266;50.866;4.398;2022-12-18T04:29:33;-3.30;99.90
29237;DHT22;16266;50.866;4.398;2022-12-18T04:31:59;-3.20;99.90
29237;DHT22;16266;50.866;4.398;2022-12-18T04:34:24;-3.20;99.90
29237;DHT22;16266;50.866;4.398;2022-12-18T04:36:50;-3.20;99.90
29237;DHT22;16266;50.866;4.398;2022-12-18T04:39:17;-3.20;99.90
29237;DHT22;16266;50.866;4.398;2022-12-18T04:41:43;-3.20;99.90
29237;DHT22;16266;50.866;4.398;2022-12-18T04:44:09;-3.20;99.90
29237;DHT22;16266;50.866;4.398;2022-12-18T04:46:35;-3.10;99.90
29237;DHT22;16266;50.866;4.398;2022-12-18T04:49:01;-3.10;99.90
29237;DHT22;16266;50.866;4.398;2022-12-18T04:51:27;-3.20;99.90
29237;DHT22;16266;50.866;4.398;2022-12-18T04:53:53;-3.10;99.90
29237;DHT22;16266;50.866;4.398;2022-12-18T04:56:19;-3.10;99.90
29237;DHT22;16266;50.866;4.398;2022-12-18T04:58:45;-3.00;99.90
29237;DHT22;16266;50.866;4.398;2022-12-18T05:01:13;-3.00;99.90
29237;DHT22;16266;50.866;4.398;2022-12-18T05:03:39;-3.00;99.90
29237;DHT22;16266;50.866;4.398;2022-12-18T05:06:05;-2.90;99.90
29237;DHT22;16266;50.866;4.398;2022-12-18T05:08:32;-2.90;99.90
29237;DHT22;16266;50.866;4.398;2022-12-18T05:11:09;-2.90;99.90
29237;DHT22;16266;50.866;4.398;2022-12-18T05:13:35;-2.90;99.90
29237;DHT22;16266;50.866;4.398;2022-12-18T05:16:01;-2.80;99.90
29237;DHT22;16266;50.866;4.398;2022-12-18T05:18:27;-2.80;99.90
29237;DHT22;16266;50.866;4.398;2022-12-18T05:20:54;-2.70;99.90
29237;DHT22;16266;50.866;4.398;2022-12-18T05:23:21;-2.70;99.90
29237;DHT22;16266;50.866;4.398;2022-12-18T05:25:51;-2.90;99.90
29237;DHT22;16266;50.866;4.398;2022-12-18T05:28:17;-2.90;99.90
29237;DHT22;16266;50.866;4.398;2022-12-18T05:30:46;-3.10;99.90
29237;DHT22;16266;50.866;4.398;2022-12-18T05:33:12;-3.00;99.90
29237;DHT22;16266;50.866;4.398;2022-12-18T05:35:38;-3.10;99.90
29237;DHT22;16266;50.866;4.398;2022-12-18T05:38:03;-3.00;99.90
29237;DHT22;16266;50.866;4.398;2022-12-18T05:40:29;-3.10;99.90
29237;DHT22;16266;50.866;4.398;2022-12-18T05:42:55;-3.20;99.90
29237;DHT22;16266;50.866;4.398;2022-12-18T05:45:20;-3.10;99.90
29237;DHT22;16266;50.866;4.398;2022-12-18T05:47:46;-3.20;99.90
29237;DHT22;16266;50.866;4.398;2022-12-18T05:50:13;-3.20;99.90
29237;DHT22;16266;50.866;4.398;2022-12-18T05:52:38;-3.10;99.90
29237;DHT22;16266;50.866;4.398;2022-12-18T05:55:04;-3.10;99.90
29237;DHT22;16266;50.866;4.398;2022-12-18T05:57:31;-3.10;99.90
29237;DHT22;16266;50.866;4.398;2022-12-18T05:59:58;-3.10;99.90
29237;DHT22;16266;50.866;4.398;2022-12-18T06:02:23;-3.10;99.90
29237;DHT22;16266;50.866;4.398;2022-12-18T06:04:49;-3.00;99.90
29237;DHT22;16266;50.866;4.398;2022-12-18T06:07:15;-2.90;99.90
29237;DHT22;16266;50.866;4.398;2022-12-18T06:09:40;-2.90;99.90
29237;DHT22;16266;50.866;4.398;2022-12-18T06:12:06;-2.80;99.90
29237;DHT22;16266;50.866;4.398;2022-12-18T06:14:32;-2.70;99.90
29237;DHT22;16266;50.866;4.398;2022-12-18T06:16:57;-2.70;99.90
29237;DHT22;16266;50.866;4.398;2022-12-18T06:19:23;-2.70;99.90
29237;DHT22;16266;50.866;4.398;2022-12-18T06:21:49;-2.70;99.90
29237;DHT22;16266;50.866;4.398;2022-12-18T06:24:15;-2.60;99.90
29237;DHT22;16266;50.866;4.398;2022-12-18T06:26:40;-2.70;99.90
29237;DHT22;16266;50.866;4.398;2022-12-18T06:29:06;-2.60;99.90
29237;DHT22;16266;50.866;4.398;2022-12-18T06:31:32;-2.50;99.90
29237;DHT22;16266;50.866;4.398;2022-12-18T06:33:58;-2.40;99.90
29237;DHT22;16266;50.866;4.398;2022-12-18T06:36:24;-2.40;99.90
29237;DHT22;16266;50.866;4.398;2022-12-18T06:38:49;-2.40;99.90
29237;DHT22;16266;50.866;4.398;2022-12-18T06:41:20;-2.40;99.90
29237;DHT22;16266;50.866;4.398;2022-12-18T06:43:46;-2.50;99.90
29237;DHT22;16266;50.866;4.398;2022-12-18T06:46:12;-2.50;99.90
29237;DHT22;16266;50.866;4.398;2022-12-18T06:48:47;-2.60;99.90
29237;DHT22;16266;50.866;4.398;2022-12-18T06:51:22;-2.80;99.90
29237;DHT22;16266;50.866;4.398;2022-12-18T06:53:51;-2.70;99.90
29237;DHT22;16266;50.866;4.398;2022-12-18T06:56:29;-2.70;99.90
29237;DHT22;16266;50.866;4.398;2022-12-18T06:59:07;-2.70;99.90
29237;DHT22;16266;50.866;4.398;2022-12-18T07:01:34;-2.70;99.90
29237;DHT22;16266;50.866;4.398;2022-12-18T07:04:00;-2.60;99.90
29237;DHT22;16266;50.866;4.398;2022-12-18T07:06:26;-2.50;99.90
29237;DHT22;16266;50.866;4.398;2022-12-18T07:08:53;-2.70;99.90
29237;DHT22;16266;50.866;4.398;2022-12-18T07:11:19;-2.60;99.90
29237;DHT22;16266;50.866;4.398;2022-12-18T07:13:45;-2.50;99.90
29237;DHT22;16266;50.866;4.398;2022-12-18T07:16:17;-2.60;99.90
29237;DHT22;16266;50.866;4.398;2022-12-18T07:18:43;-2.60;99.90
29237;DHT22;16266;50.866;4.398;2022-12-18T07:21:11;-2.60;99.90
29237;DHT22;16266;50.866;4.398;2022-12-18T07:23:37;-2.60;99.90
29237;DHT22;16266;50.866;4.398;2022-12-18T07:26:12;-2.50;99.90
29237;DHT22;16266;50.866;4.398;2022-12-18T07:28:40;-2.50;99.90
29237;DHT22;16266;50.866;4.398;2022-12-18T07:31:11;-2.40;99.90
29237;DHT22;16266;50.866;4.398;2022-12-18T07:33:38;-2.40;99.90
29237;DHT22;16266;50.866;4.398;2022-12-18T07:36:05;-2.40;99.90
29237;DHT22;16266;50.866;4.398;2022-12-18T07:38:32;-2.40;99.90
29237;DHT22;16266;50.866;4.398;2022-12-18T07:41:16;-2.40;99.90
29237;DHT22;16266;50.866;4.398;2022-12-18T07:43:44;-2.30;99.90
29237;DHT22;16266;50.866;4.398;2022-12-18T07:46:10;-2.40;99.90
29237;DHT22;16266;50.866;4.398;2022-12-18T07:48:37;-2.40;99.90
29237;DHT22;16266;50.866;4.398;2022-12-18T07:51:05;-2.40;99.90
29237;DHT22;16266;50.866;4.398;2022-12-18T07:53:32;-2.40;99.90
29237;DHT22;16266;50.866;4.398;2022-12-18T07:55:59;-2.40;99.90
29237;DHT22;16266;50.866;4.398;2022-12-18T07:58:26;-2.40;99.90
29237;DHT22;16266;50.866;4.398;2022-12-18T08:00:51;-2.20;99.90
29237;DHT22;16266;50.866;4.398;2022-12-18T08:03:19;-2.10;99.90
29237;DHT22;16266;50.866;4.398;2022-12-18T08:05:44;-2.00;99.90
29237;DHT22;16266;50.866;4.398;2022-12-18T08:08:11;-2.00;99.90
29237;DHT22;16266;50.866;4.398;2022-12-18T08:10:38;-2.00;99.90
29237;DHT22;16266;50.866;4.398;2022-12-18T08:13:05;-1.90;99.90
29237;DHT22;16266;50.866;4.398;2022-12-18T08:15:32;-1.70;99.90
29237;DHT22;16266;50.866;4.398;2022-12-18T08:17:58;-1.60;99.90
29237;DHT22;16266;50.866;4.398;2022-12-18T08:20:24;-1.50;99.90
29237;DHT22;16266;50.866;4.398;2022-12-18T08:22:49;-1.50;99.90
29237;DHT22;16266;50.866;4.398;2022-12-18T08:25:15;-1.30;99.90
29237;DHT22;16266;50.866;4.398;2022-12-18T08:27:41;-1.00;99.90
29237;DHT22;16266;50.866;4.398;2022-12-18T08:30:07;-1.10;99.90
29237;DHT22;16266;50.866;4.398;2022-12-18T08:32:33;-1.00;99.90
29237;DHT22;16266;50.866;4.398;2022-12-18T08:34:59;-0.80;99.90
29237;DHT22;16266;50.866;4.398;2022-12-18T08:37:25;-0.60;99.90
29237;DHT22;16266;50.866;4.398;2022-12-18T08:39:51;-0.40;99.90
29237;DHT22;16266;50.866;4.398;2022-12-18T08:42:17;-0.30;99.90
29237;DHT22;16266;50.866;4.398;2022-12-18T08:45:02;-0.20;99.90
29237;DHT22;16266;50.866;4.398;2022-12-18T08:47:27;-0.10;99.90
29237;DHT22;16266;50.866;4.398;2022-12-18T08:49:53;0.10;99.90
29237;DHT22;16266;50.866;4.398;2022-12-18T08:52:19;0.20;99.90
29237;DHT22;16266;50.866;4.398;2022-12-18T08:54:44;0.30;99.90
29237;DHT22;16266;50.866;4.398;2022-12-18T08:57:22;0.40;99.90
29237;DHT22;16266;50.866;4.398;2022-12-18T08:59:48;0.50;99.90
29237;DHT22;16266;50.866;4.398;2022-12-18T09:02:13;0.70;99.90
29237;DHT22;16266;50.866;4.398;2022-12-18T09:04:39;0.70;99.90
29237;DHT22;16266;50.866;4.398;2022-12-18T09:07:05;0.70;99.90
29237;DHT22;16266;50.866;4.398;2022-12-18T09:09:30;0.80;99.90
29237;DHT22;16266;50.866;4.398;2022-12-18T09:12:02;1.10;99.90
29237;DHT22;16266;50.866;4.398;2022-12-18T09:14:28;1.40;99.90
29237;DHT22;16266;50.866;4.398;2022-12-18T09:16:54;1.60;99.90
29237;DHT22;16266;50.866;4.398;2022-12-18T09:19:20;1.60;99.90
29237;DHT22;16266;50.866;4.398;2022-12-18T09:21:46;1.60;99.90
29237;DHT22;16266;50.866;4.398;2022-12-18T09:24:14;1.60;99.90
29237;DHT22;16266;50.866;4.398;2022-12-18T09:26:40;1.50;99.90
29237;DHT22;16266;50.866;4.398;2022-12-18T09:29:06;1.50;99.90
29237;DHT22;16266;50.866;4.398;2022-12-18T09:31:35;1.50;99.90
29237;DHT22;16266;50.866;4.398;2022-12-18T09:34:01;1.30;99.90
29237;DHT22;16266;50.866;4.398;2022-12-18T09:36:27;1.00;99.90
29237;DHT22;16266;50.866;4.398;2022-12-18T09:38:58;0.90;99.90
29237;DHT22;16266;50.866;4.398;2022-12-18T09:41:41;0.90;99.90
29237;DHT22;16266;50.866;4.398;2022-12-18T09:46:49;0.80;99.90
29237;DHT22;16266;50.866;4.398;2022-12-18T09:49:18;0.80;99.90
29237;DHT22;16266;50.866;4.398;2022-12-18T09:51:56;0.80;99.90
29237;DHT22;16266;50.866;4.398;2022-12-18T09:54:35;1.10;99.90
29237;DHT22;16266;50.866;4.398;2022-12-18T09:57:02;1.30;99.90
29237;DHT22;16266;50.866;4.398;2022-12-18T09:59:34;1.30;99.90
29237;DHT22;16266;50.866;4.398;2022-12-18T10:02:26;1.40;99.90
29237;DHT22;16266;50.866;4.398;2022-12-18T10:05:05;1.60;99.90
29237;DHT22;16266;50.866;4.398;2022-12-18T10:10:53;1.30;99.90
29237;DHT22;16266;50.866;4.398;2022-12-18T10:16:17;1.20;99.90
29237;DHT22;16266;50.866;4.398;2022-12-18T10:24:36;1.20;99.90
29237;DHT22;16266;50.866;4.398;2022-12-18T10:27:25;1.30;99.90
29237;DHT22;16266;50.866;4.398;2022-12-18T10:29:52;1.40;99.90
29237;DHT22;16266;50.866;4.398;2022-12-18T10:32:29;1.60;99.90
29237;DHT22;16266;50.866;4.398;2022-12-18T10:34:57;1.50;99.90
29237;DHT22;16266;50.866;4.398;2022-12-18T10:37:28;1.50;99.90
29237;DHT22;16266;50.866;4.398;2022-12-18T10:40:13;1.60;99.90
29237;DHT22;16266;50.866;4.398;2022-12-18T10:42:39;1.70;99.90
29237;DHT22;16266;50.866;4.398;2022-12-18T10:45:12;1.90;99.90
29237;DHT22;16266;50.866;4.398;2022-12-18T10:47:46;1.90;99.90
29237;DHT22;16266;50.866;4.398;2022-12-18T10:50:40;1.90;99.90
29237;DHT22;16266;50.866;4.398;2022-12-18T10:53:21;1.80;99.90
29237;DHT22;16266;50.866;4.398;2022-12-18T10:55:48;2.00;99.90
29237;DHT22;16266;50.866;4.398;2022-12-18T11:04:16;2.60;99.90
29237;DHT22;16266;50.866;4.398;2022-12-18T11:06:23;2.80;99.90
29237;DHT22;16266;50.866;4.398;2022-12-18T11:09:21;2.90;99.90
29237;DHT22;16266;50.866;4.398;2022-12-18T11:11:53;3.00;99.90
29237;DHT22;16266;50.866;4.398;2022-12-18T11:14:29;3.10;99.90
29237;DHT22;16266;50.866;4.398;2022-12-18T11:16:57;3.30;99.90
29237;DHT22;16266;50.866;4.398;2022-12-18T11:19:35;3.50;99.90
29237;DHT22;16266;50.866;4.398;2022-12-18T11:22:21;3.60;99.90
29237;DHT22;16266;50.866;4.398;2022-12-18T11:24:58;3.80;99.90
29237;DHT22;16266;50.866;4.398;2022-12-18T11:27:25;4.00;99.90
29237;DHT22;16266;50.866;4.398;2022-12-18T11:29:52;4.00;99.90
29237;DHT22;16266;50.866;4.398;2022-12-18T11:32:40;4.10;99.90
29237;DHT22;16266;50.866;4.398;2022-12-18T11:37:54;4.20;99.90
29237;DHT22;16266;50.866;4.398;2022-12-18T11:40:37;4.30;99.90
29237;DHT22;16266;50.866;4.398;2022-12-18T11:43:35;4.10;99.90
29237;DHT22;16266;50.866;4.398;2022-12-18T11:46:35;3.90;99.90
29237;DHT22;16266;50.866;4.398;2022-12-18T11:49:36;3.80;99.90
29237;DHT22;16266;50.866;4.398;2022-12-18T11:54:35;4.00;99.90
29237;DHT22;16266;50.866;4.398;2022-12-18T12:11:10;4.30;99.90
29237;DHT22;16266;50.866;4.398;2022-12-18T12:19:07;4.30;99.90
29237;DHT22;16266;50.866;4.398;2022-12-18T12:30:13;4.00;99.90
29237;DHT22;16266;50.866;4.398;2022-12-18T12:37:55;4.20;99.90
29237;DHT22;16266;50.866;4.398;2022-12-18T12:40:28;4.30;99.90
29237;DHT22;16266;50.866;4.398;2022-12-18T12:43:00;4.30;99.90
29237;DHT22;16266;50.866;4.398;2022-12-18T12:45:42;4.30;99.90
29237;DHT22;16266;50.866;4.398;2022-12-18T12:48:47;4.10;99.90
29237;DHT22;16266;50.866;4.398;2022-12-18T12:53:42;4.20;99.90
29237;DHT22;16266;50.866;4.398;2022-12-18T12:56:14;4.40;99.90
29237;DHT22;16266;50.866;4.398;2022-12-18T12:59:19;4.50;99.90
29237;DHT22;16266;50.866;4.398;2022-12-18T13:10:12;4.50;99.90
29237;DHT22;16266;50.866;4.398;2022-12-18T13:20:35;4.50;99.90
29237;DHT22;16266;50.866;4.398;2022-12-18T13:23:23;4.50;99.90
29237;DHT22;16266;50.866;4.398;2022-12-18T13:25:59;4.50;99.90
29237;DHT22;16266;50.866;4.398;2022-12-18T13:30:57;4.30;99.90
29237;DHT22;16266;50.866;4.398;2022-12-18T13:44:38;3.80;99.90
29237;DHT22;16266;50.866;4.398;2022-12-18T13:47:26;3.80;99.90
29237;DHT22;16266;50.866;4.398;2022-12-18T13:49:53;3.70;99.90
29237;DHT22;16266;50.866;4.398;2022-12-18T13:52:28;3.70;99.90
29237;DHT22;16266;50.866;4.398;2022-12-18T13:54:59;3.70;99.90
29237;DHT22;16266;50.866;4.398;2022-12-18T13:59:53;3.70;99.90
29237;DHT22;16266;50.866;4.398;2022-12-18T14:02:28;3.50;99.90
29237;DHT22;16266;50.866;4.398;2022-12-18T14:04:54;3.50;99.90
29237;DHT22;16266;50.866;4.398;2022-12-18T14:07:28;3.40;99.90
29237;DHT22;16266;50.866;4.398;2022-12-18T14:09:56;3.50;99.90
29237;DHT22;16266;50.866;4.398;2022-12-18T14:12:28;3.50;99.90
29237;DHT22;16266;50.866;4.398;2022-12-18T14:15:28;3.40;99.90
29237;DHT22;16266;50.866;4.398;2022-12-18T14:18:03;3.20;99.90
29237;DHT22;16266;50.866;4.398;2022-12-18T14:20:35;3.20;99.90
29237;DHT22;16266;50.866;4.398;2022-12-18T14:23:00;3.20;99.90
29237;DHT22;16266;50.866;4.398;2022-12-18T14:25:28;3.20;99.90
29237;DHT22;16266;50.866;4.398;2022-12-18T14:30:51;3.40;99.90
29237;DHT22;16266;50.866;4.398;2022-12-18T14:33:25;3.40;99.90
29237;DHT22;16266;50.866;4.398;2022-12-18T14:36:03;3.50;99.90
29237;DHT22;16266;50.866;4.398;2022-12-18T14:38:41;3.50;99.90
29237;DHT22;16266;50.866;4.398;2022-12-18T14:41:13;3.50;99.90
29237;DHT22;16266;50.866;4.398;2022-12-18T14:43:41;3.50;99.90
29237;DHT22;16266;50.866;4.398;2022-12-18T14:46:36;3.50;99.90
29237;DHT22;16266;50.866;4.398;2022-12-18T14:49:05;3.50;99.90
29237;DHT22;16266;50.866;4.398;2022-12-18T14:54:22;3.40;99.90
29237;DHT22;16266;50.866;4.398;2022-12-18T14:57:00;3.40;99.90
29237;DHT22;16266;50.866;4.398;2022-12-18T14:59:27;3.40;99.90
29237;DHT22;16266;50.866;4.398;2022-12-18T15:04:39;3.40;99.90
29237;DHT22;16266;50.866;4.398;2022-12-18T15:09:34;3.30;99.90
29237;DHT22;16266;50.866;4.398;2022-12-18T15:12:02;3.20;99.90
29237;DHT22;16266;50.866;4.398;2022-12-18T15:17:03;3.10;99.90
29237;DHT22;16266;50.866;4.398;2022-12-18T15:19:42;3.00;99.90
29237;DHT22;16266;50.866;4.398;2022-12-18T15:22:26;3.00;99.90
29237;DHT22;16266;50.866;4.398;2022-12-18T15:24:54;3.10;99.90
29237;DHT22;16266;50.866;4.398;2022-12-18T15:32:35;3.00;99.90
29237;DHT22;16266;50.866;4.398;2022-12-18T15:37:34;2.80;99.90
29237;DHT22;16266;50.866;4.398;2022-12-18T15:40:18;2.90;99.90
29237;DHT22;16266;50.866;4.398;2022-12-18T15:42:44;2.80;99.90
29237;DHT22;16266;50.866;4.398;2022-12-18T15:45:29;2.80;99.90
29237;DHT22;16266;50.866;4.398;2022-12-18T15:47:55;2.90;99.90
29237;DHT22;16266;50.866;4.398;2022-12-18T15:50:21;2.90;99.90
29237;DHT22;16266;50.866;4.398;2022-12-18T15:52:49;2.80;99.90
29237;DHT22;16266;50.866;4.398;2022-12-18T15:55:21;2.80;99.90
29237;DHT22;16266;50.866;4.398;2022-12-18T16:01:11;2.90;99.90
29237;DHT22;16266;50.866;4.398;2022-12-18T16:04:00;2.80;99.90
29237;DHT22;16266;50.866;4.398;2022-12-18T16:06:30;2.80;99.90
29237;DHT22;16266;50.866;4.398;2022-12-18T16:08:57;2.80;99.90
29237;DHT22;16266;50.866;4.398;2022-12-18T16:11:27;2.90;99.90
29237;DHT22;16266;50.866;4.398;2022-12-18T16:14:29;2.90;99.90
29237;DHT22;16266;50.866;4.398;2022-12-18T16:17:03;2.90;99.90
29237;DHT22;16266;50.866;4.398;2022-12-18T16:19:30;2.80;99.90
29237;DHT22;16266;50.866;4.398;2022-12-18T16:21:58;2.90;99.90
29237;DHT22;16266;50.866;4.398;2022-12-18T16:24:27;2.90;99.90
29237;DHT22;16266;50.866;4.398;2022-12-18T16:26:57;2.90;99.90
29237;DHT22;16266;50.866;4.398;2022-12-18T16:29:30;2.90;99.90
29237;DHT22;16266;50.866;4.398;2022-12-18T16:31:57;2.90;99.90
29237;DHT22;16266;50.866;4.398;2022-12-18T16:34:33;3.00;99.90
29237;DHT22;16266;50.866;4.398;2022-12-18T16:37:06;3.10;99.90
29237;DHT22;16266;50.866;4.398;2022-12-18T16:39:34;3.10;99.90
29237;DHT22;16266;50.866;4.398;2022-12-18T16:42:16;3.10;99.90
29237;DHT22;16266;50.866;4.398;2022-12-18T16:44:46;3.00;99.90
29237;DHT22;16266;50.866;4.398;2022-12-18T16:47:18;3.10;99.90
29237;DHT22;16266;50.866;4.398;2022-12-18T16:49:45;3.20;99.90
29237;DHT22;16266;50.866;4.398;2022-12-18T16:52:11;3.10;99.90
29237;DHT22;16266;50.866;4.398;2022-12-18T16:54:47;3.20;99.90
29237;DHT22;16266;50.866;4.398;2022-12-18T16:57:16;3.20;99.90
29237;DHT22;16266;50.866;4.398;2022-12-18T16:59:42;3.30;99.90
29237;DHT22;16266;50.866;4.398;2022-12-18T17:02:29;3.10;99.90
29237;DHT22;16266;50.866;4.398;2022-12-18T17:04:57;3.20;99.90
29237;DHT22;16266;50.866;4.398;2022-12-18T17:07:25;3.20;99.90
29237;DHT22;16266;50.866;4.398;2022-12-18T17:09:52;3.20;99.90
29237;DHT22;16266;50.866;4.398;2022-12-18T17:12:20;3.10;99.90
29237;DHT22;16266;50.866;4.398;2022-12-18T17:14:50;3.10;99.90
29237;DHT22;16266;50.866;4.398;2022-12-18T17:17:18;3.10;99.90
29237;DHT22;16266;50.866;4.398;2022-12-18T17:19:44;3.10;99.90
29237;DHT22;16266;50.866;4.398;2022-12-18T17:22:10;3.10;99.90
29237;DHT22;16266;50.866;4.398;2022-12-18T17:24:36;3.10;99.90
29237;DHT22;16266;50.866;4.398;2022-12-18T17:27:04;3.00;99.90
29237;DHT22;16266;50.866;4.398;2022-12-18T17:29:30;3.00;99.90
29237;DHT22;16266;50.866;4.398;2022-12-18T17:31:55;3.10;99.90
29237;DHT22;16266;50.866;4.398;2022-12-18T17:34:22;3.00;99.90
29237;DHT22;16266;50.866;4.398;2022-12-18T17:36:49;3.10;99.90
29237;DHT22;16266;50.866;4.398;2022-12-18T17:39:19;3.00;99.90
29237;DHT22;16266;50.866;4.398;2022-12-18T17:41:45;3.00;99.90
29237;DHT22;16266;50.866;4.398;2022-12-18T17:44:11;2.90;99.90
29237;DHT22;16266;50.866;4.398;2022-12-18T17:46:39;2.90;99.90
29237;DHT22;16266;50.866;4.398;2022-12-18T17:49:06;2.80;99.90
29237;DHT22;16266;50.866;4.398;2022-12-18T17:51:33;2.70;99.90
29237;DHT22;16266;50.866;4.398;2022-12-18T17:53:59;2.70;99.90
29237;DHT22;16266;50.866;4.398;2022-12-18T17:56:25;2.60;99.90
29237;DHT22;16266;50.866;4.398;2022-12-18T17:58:51;2.60;99.90
29237;DHT22;16266;50.866;4.398;2022-12-18T18:01:20;2.50;99.90
29237;DHT22;16266;50.866;4.398;2022-12-18T18:03:46;2.40;99.90
29237;DHT22;16266;50.866;4.398;2022-12-18T18:06:12;2.30;99.90
29237;DHT22;16266;50.866;4.398;2022-12-18T18:08:38;2.20;99.90
29237;DHT22;16266;50.866;4.398;2022-12-18T18:11:06;2.20;99.90
29237;DHT22;16266;50.866;4.398;2022-12-18T18:13:51;2.20;99.90
29237;DHT22;16266;50.866;4.398;2022-12-18T18:16:31;2.10;99.90
29237;DHT22;16266;50.866;4.398;2022-12-18T18:19:02;2.10;99.90
29237;DHT22;16266;50.866;4.398;2022-12-18T18:21:29;2.10;99.90
29237;DHT22;16266;50.866;4.398;2022-12-18T18:23:59;2.00;99.90
29237;DHT22;16266;50.866;4.398;2022-12-18T18:26:25;2.20;99.90